sensor_id;sensor_type;location;lat;lon;timestamp;pressure;altitude;pressure_sealevel;temperature;humidity
36664;BME280;53333;51.976;20.144;2023-04-23T00:01:27;99884.50;;;12.78;44.16
36664;BME280;53333;51.976;20.144;2023-04-23T00:04:01;99876.63;;;12.75;44.06
36664;BME280;53333;51.976;20.144;2023-04-23T00:06:38;99870.91;;;12.66;44.34
36664;BME280;53333;51.976;20.144;2023-04-23T00:09:13;99873.00;;;12.61;44.65
36664;BME280;53333;51.976;20.144;2023-04-23T00:11:47;99875.97;;;12.57;44.63
36664;BME280;53333;51.976;20.144;2023-04-23T00:14:20;99873.56;;;12.52;44.66
36664;BME280;53333;51.976;20.144;2023-04-23T00:16:54;99872.91;;;12.48;44.71
36664;BME280;53333;51.976;20.144;2023-04-23T00:19:26;99871.25;;;12.46;44.60
36664;BME280;53333;51.976;20.144;2023-04-23T00:22:01;99870.59;;;12.42;44.70
36664;BME280;53333;51.976;20.144;2023-04-23T00:24:33;99868.09;;;12.39;44.71
36664;BME280;53333;51.976;20.144;2023-04-23T00:27:09;99865.50;;;12.38;44.71
36664;BME280;53333;51.976;20.144;2023-04-23T00:29:42;99868.28;;;12.36;44.68
36664;BME280;53333;51.976;20.144;2023-04-23T00:32:16;99868.28;;;12.36;44.79
36664;BME280;53333;51.976;20.144;2023-04-23T00:34:49;99864.84;;;12.34;44.69
36664;BME280;53333;51.976;20.144;2023-04-23T00:37:24;99859.66;;;12.31;44.87
36664;BME280;53333;51.976;20.144;2023-04-23T00:39:57;99863.28;;;12.30;45.01
36664;BME280;53333;51.976;20.144;2023-04-23T00:42:30;99861.88;;;12.24;44.99
36664;BME280;53333;51.976;20.144;2023-04-23T00:45:03;99857.53;;;12.22;45.19
36664;BME280;53333;51.976;20.144;2023-04-23T00:47:39;99859.47;;;12.20;45.13
36664;BME280;53333;51.976;20.144;2023-04-23T00:50:12;99864.16;;;12.16;45.22
36664;BME280;53333;51.976;20.144;2023-04-23T00:52:46;99858.09;;;12.12;45.36
36664;BME280;53333;51.976;20.144;2023-04-23T00:55:19;99866.22;;;12.11;45.43
36664;BME280;53333;51.976;20.144;2023-04-23T00:57:53;99863.53;;;12.11;45.32
36664;BME280;53333;51.976;20.144;2023-04-23T01:00:26;99868.13;;;12.09;45.33
36664;BME280;53333;51.976;20.144;2023-04-23T01:02:59;99867.38;;;12.07;45.32
36664;BME280;53333;51.976;20.144;2023-04-23T01:05:32;99870.13;;;12.05;45.41
36664;BME280;53333;51.976;20.144;2023-04-23T01:08:07;99870.22;;;12.04;45.58
36664;BME280;53333;51.976;20.144;2023-04-23T01:10:41;99866.78;;;12.02;45.47
36664;BME280;53333;51.976;20.144;2023-04-23T01:13:14;99872.31;;;11.98;45.50
36664;BME280;53333;51.976;20.144;2023-04-23T01:15:47;99875.25;;;11.94;45.83
36664;BME280;53333;51.976;20.144;2023-04-23T01:18:20;99872.72;;;11.91;45.64
36664;BME280;53333;51.976;20.144;2023-04-23T01:20:53;99873.69;;;11.90;45.70
36664;BME280;53333;51.976;20.144;2023-04-23T01:23:27;99871.28;;;11.85;45.75
36664;BME280;53333;51.976;20.144;2023-04-23T01:26:00;99853.50;;;11.84;45.89
36664;BME280;53333;51.976;20.144;2023-04-23T01:28:33;99867.91;;;11.81;45.83
36664;BME280;53333;51.976;20.144;2023-04-23T01:31:07;99867.16;;;11.79;45.66
36664;BME280;53333;51.976;20.144;2023-04-23T01:33:40;99864.66;;;11.76;46.00
36664;BME280;53333;51.976;20.144;2023-04-23T01:36:13;99857.66;;;11.74;46.04
36664;BME280;53333;51.976;20.144;2023-04-23T01:38:48;99862.25;;;11.72;45.98
36664;BME280;53333;51.976;20.144;2023-04-23T01:41:21;99863.38;;;11.68;46.41
36664;BME280;53333;51.976;20.144;2023-04-23T01:43:56;99863.44;;;11.66;46.28
36664;BME280;53333;51.976;20.144;2023-04-23T01:46:28;99857.56;;;11.75;45.49
36664;BME280;53333;51.976;20.144;2023-04-23T01:49:02;99859.16;;;11.63;45.97
36664;BME280;53333;51.976;20.144;2023-04-23T01:51:35;99863.91;;;11.58;46.17
36664;BME280;53333;51.976;20.144;2023-04-23T01:54:09;99864.09;;;11.55;46.33
36664;BME280;53333;51.976;20.144;2023-04-23T01:56:42;99863.28;;;11.53;46.36
36664;BME280;53333;51.976;20.144;2023-04-23T01:59:15;99862.53;;;11.51;46.45
36664;BME280;53333;51.976;20.144;2023-04-23T02:01:48;99859.25;;;11.46;46.67
36664;BME280;53333;51.976;20.144;2023-04-23T02:04:22;99858.59;;;11.42;46.75
36664;BME280;53333;51.976;20.144;2023-04-23T02:06:55;99862.28;;;11.40;46.86
36664;BME280;53333;51.976;20.144;2023-04-23T02:09:29;99859.00;;;11.35;47.00
36664;BME280;53333;51.976;20.144;2023-04-23T02:12:05;99858.31;;;11.31;47.10
36664;BME280;53333;51.976;20.144;2023-04-23T02:14:37;99865.56;;;11.29;47.19
36664;BME280;53333;51.976;20.144;2023-04-23T02:17:11;99853.25;;;11.26;47.16
36664;BME280;53333;51.976;20.144;2023-04-23T02:19:43;99856.09;;;11.23;47.31
36664;BME280;53333;51.976;20.144;2023-04-23T02:22:16;99859.88;;;11.19;47.21
36664;BME280;53333;51.976;20.144;2023-04-23T02:24:51;99859.28;;;11.14;47.70
36664;BME280;53333;51.976;20.144;2023-04-23T02:27:25;99862.13;;;11.11;47.68
36664;BME280;53333;51.976;20.144;2023-04-23T02:29:57;99859.59;;;11.08;47.57
36664;BME280;53333;51.976;20.144;2023-04-23T02:32:30;99854.44;;;11.05;47.81
36664;BME280;53333;51.976;20.144;2023-04-23T02:35:04;99848.31;;;11.03;47.82
36664;BME280;53333;51.976;20.144;2023-04-23T02:37:38;99848.41;;;11.01;47.80
36664;BME280;53333;51.976;20.144;2023-04-23T02:40:12;99848.56;;;10.98;47.82
36664;BME280;53333;51.976;20.144;2023-04-23T02:42:45;99850.47;;;10.96;47.96
36664;BME280;53333;51.976;20.144;2023-04-23T02:45:18;99851.41;;;10.95;47.97
36664;BME280;53333;51.976;20.144;2023-04-23T02:47:54;99848.75;;;10.95;48.10
36664;BME280;53333;51.976;20.144;2023-04-23T02:50:27;99847.09;;;10.93;48.13
36664;BME280;53333;51.976;20.144;2023-04-23T02:53:00;99849.84;;;10.91;48.15
36664;BME280;53333;51.976;20.144;2023-04-23T02:55:34;99845.53;;;10.88;48.38
36664;BME280;53333;51.976;20.144;2023-04-23T02:58:07;99851.06;;;10.85;48.28
36664;BME280;53333;51.976;20.144;2023-04-23T03:00:42;99846.81;;;10.81;48.40
36664;BME280;53333;51.976;20.144;2023-04-23T03:03:15;99841.72;;;10.77;48.61
36664;BME280;53333;51.976;20.144;2023-04-23T03:05:48;99850.88;;;10.72;48.76
36664;BME280;53333;51.976;20.144;2023-04-23T03:08:21;99848.44;;;10.68;48.93
36664;BME280;53333;51.976;20.144;2023-04-23T03:10:55;99839.75;;;10.64;49.06
36664;BME280;53333;51.976;20.144;2023-04-23T03:13:28;99848.84;;;10.60;49.25
36664;BME280;53333;51.976;20.144;2023-04-23T03:16:01;99838.25;;;10.59;49.07
36664;BME280;53333;51.976;20.144;2023-04-23T03:18:34;99837.56;;;10.55;49.24
36664;BME280;53333;51.976;20.144;2023-04-23T03:21:07;99839.47;;;10.53;49.31
36664;BME280;53333;51.976;20.144;2023-04-23T03:23:40;99831.53;;;10.51;49.25
36664;BME280;53333;51.976;20.144;2023-04-23T03:26:14;99835.13;;;10.50;49.46
36664;BME280;53333;51.976;20.144;2023-04-23T03:28:47;99835.28;;;10.47;49.64
36664;BME280;53333;51.976;20.144;2023-04-23T03:31:20;99832.88;;;10.43;49.61
36664;BME280;53333;51.976;20.144;2023-04-23T03:33:53;99834.84;;;10.39;49.70
36664;BME280;53333;51.976;20.144;2023-04-23T03:36:33;99827.00;;;10.36;49.74
36664;BME280;53333;51.976;20.144;2023-04-23T03:39:07;99827.16;;;10.33;49.68
36664;BME280;53333;51.976;20.144;2023-04-23T03:41:53;99826.44;;;10.29;49.86
36664;BME280;53333;51.976;20.144;2023-04-23T03:44:30;99826.59;;;10.26;49.86
36664;BME280;53333;51.976;20.144;2023-04-23T03:47:03;99823.03;;;10.26;49.92
36664;BME280;53333;51.976;20.144;2023-04-23T03:49:37;99829.34;;;10.25;50.05
36664;BME280;53333;51.976;20.144;2023-04-23T03:52:11;99822.25;;;10.24;50.10
36664;BME280;53333;51.976;20.144;2023-04-23T03:54:44;99831.19;;;10.23;50.05
36664;BME280;53333;51.976;20.144;2023-04-23T03:57:22;99822.34;;;10.22;50.24
36664;BME280;53333;51.976;20.144;2023-04-23T04:00:06;99825.78;;;10.24;50.18
36664;BME280;53333;51.976;20.144;2023-04-23T04:02:43;99830.28;;;10.24;50.26
36664;BME280;53333;51.976;20.144;2023-04-23T04:05:16;99834.59;;;10.26;50.07
36664;BME280;53333;51.976;20.144;2023-04-23T04:07:49;99823.75;;;10.29;50.22
36664;BME280;53333;51.976;20.144;2023-04-23T04:10:22;99837.75;;;10.34;50.09
36664;BME280;53333;51.976;20.144;2023-04-23T04:12:56;99826.91;;;10.38;49.98
36664;BME280;53333;51.976;20.144;2023-04-23T04:15:29;99830.28;;;10.41;49.93
36664;BME280;53333;51.976;20.144;2023-04-23T04:18:03;99834.44;;;10.47;49.97
36664;BME280;53333;51.976;20.144;2023-04-23T04:20:37;99833.22;;;10.52;49.99
36664;BME280;53333;51.976;20.144;2023-04-23T04:23:10;99835.50;;;10.60;49.92
36664;BME280;53333;51.976;20.144;2023-04-23T04:25:43;99824.47;;;10.66;49.63
36664;BME280;53333;51.976;20.144;2023-04-23T04:28:17;99825.84;;;10.73;49.53
36664;BME280;53333;51.976;20.144;2023-04-23T04:30:51;99826.41;;;10.80;49.36
36664;BME280;53333;51.976;20.144;2023-04-23T04:33:24;99823.28;;;10.88;49.40
36664;BME280;53333;51.976;20.144;2023-04-23T04:35:57;99829.94;;;10.97;49.12
36664;BME280;53333;51.976;20.144;2023-04-23T04:38:31;99823.38;;;11.02;48.81
36664;BME280;53333;51.976;20.144;2023-04-23T04:41:04;99821.44;;;11.06;48.96
36664;BME280;53333;51.976;20.144;2023-04-23T04:43:39;99826.44;;;11.12;48.89
36664;BME280;53333;51.976;20.144;2023-04-23T04:46:14;99827.72;;;11.21;48.84
36664;BME280;53333;51.976;20.144;2023-04-23T04:48:47;99829.00;;;11.30;48.83
36664;BME280;53333;51.976;20.144;2023-04-23T04:51:20;99830.19;;;11.40;48.64
36664;BME280;53333;51.976;20.144;2023-04-23T04:53:53;99828.69;;;11.50;48.60
36664;BME280;53333;51.976;20.144;2023-04-23T04:56:27;99829.19;;;11.73;47.85
36664;BME280;53333;51.976;20.144;2023-04-23T04:59:01;99827.56;;;11.70;48.03
36664;BME280;53333;51.976;20.144;2023-04-23T05:01:34;99829.09;;;11.74;47.90
36664;BME280;53333;51.976;20.144;2023-04-23T05:04:08;99824.25;;;11.81;47.76
36664;BME280;53333;51.976;20.144;2023-04-23T05:06:41;99835.34;;;11.89;47.76
36664;BME280;53333;51.976;20.144;2023-04-23T05:09:14;99823.34;;;11.96;47.71
36664;BME280;53333;51.976;20.144;2023-04-23T05:11:48;99827.50;;;12.02;47.60
36664;BME280;53333;51.976;20.144;2023-04-23T05:14:22;99826.94;;;12.11;47.58
36664;BME280;53333;51.976;20.144;2023-04-23T05:16:57;99829.72;;;12.24;47.22
36664;BME280;53333;51.976;20.144;2023-04-23T05:19:29;99842.38;;;12.37;46.97
36664;BME280;53333;51.976;20.144;2023-04-23T05:22:03;99826.41;;;12.49;46.48
36664;BME280;53333;51.976;20.144;2023-04-23T05:24:36;99824.69;;;12.63;46.41
36664;BME280;53333;51.976;20.144;2023-04-23T05:27:09;99824.59;;;12.79;46.25
36664;BME280;53333;51.976;20.144;2023-04-23T05:29:43;99828.78;;;12.97;45.83
36664;BME280;53333;51.976;20.144;2023-04-23T05:32:16;99835.72;;;13.14;45.28
36664;BME280;53333;51.976;20.144;2023-04-23T05:34:50;99829.47;;;13.28;45.24
36664;BME280;53333;51.976;20.144;2023-04-23T05:37:23;99828.50;;;13.43;44.90
36664;BME280;53333;51.976;20.144;2023-04-23T05:39:55;99828.25;;;13.61;44.52
36664;BME280;53333;51.976;20.144;2023-04-23T05:42:29;99836.25;;;13.75;44.11
36664;BME280;53333;51.976;20.144;2023-04-23T05:45:03;99824.75;;;13.86;43.84
36664;BME280;53333;51.976;20.144;2023-04-23T05:47:39;99828.25;;;14.01;43.59
36664;BME280;53333;51.976;20.144;2023-04-23T05:50:12;99824.50;;;14.16;43.29
36664;BME280;53333;51.976;20.144;2023-04-23T05:52:45;99819.47;;;14.38;42.95
36664;BME280;53333;51.976;20.144;2023-04-23T05:55:18;99819.16;;;14.55;42.73
36664;BME280;53333;51.976;20.144;2023-04-23T05:57:51;99818.81;;;14.73;42.34
36664;BME280;53333;51.976;20.144;2023-04-23T06:00:26;99816.44;;;14.94;41.69
36664;BME280;53333;51.976;20.144;2023-04-23T06:02:59;99824.03;;;15.13;41.53
36664;BME280;53333;51.976;20.144;2023-04-23T06:05:32;99823.75;;;15.29;41.05
36664;BME280;53333;51.976;20.144;2023-04-23T06:08:05;99812.72;;;15.44;40.79
36664;BME280;53333;51.976;20.144;2023-04-23T06:10:38;99820.41;;;15.62;40.39
36664;BME280;53333;51.976;20.144;2023-04-23T06:13:11;99819.25;;;15.77;40.26
36664;BME280;53333;51.976;20.144;2023-04-23T06:15:45;99818.69;;;15.96;40.18
36664;BME280;53333;51.976;20.144;2023-04-23T06:18:18;99813.97;;;16.11;39.65
36664;BME280;53333;51.976;20.144;2023-04-23T06:20:51;99817.09;;;16.29;39.04
36664;BME280;53333;51.976;20.144;2023-04-23T06:23:24;99813.16;;;16.45;39.15
36664;BME280;53333;51.976;20.144;2023-04-23T06:25:57;99818.09;;;16.62;38.76
36664;BME280;53333;51.976;20.144;2023-04-23T06:28:30;99812.44;;;16.77;38.47
36664;BME280;53333;51.976;20.144;2023-04-23T06:31:22;99815.94;;;16.90;37.99
36664;BME280;53333;51.976;20.144;2023-04-23T06:33:55;99811.50;;;17.00;38.09
36664;BME280;53333;51.976;20.144;2023-04-23T06:36:28;99818.59;;;17.13;37.60
36664;BME280;53333;51.976;20.144;2023-04-23T06:39:02;99813.03;;;17.25;37.43
36664;BME280;53333;51.976;20.144;2023-04-23T06:41:35;99817.56;;;17.36;37.44
36664;BME280;53333;51.976;20.144;2023-04-23T06:44:28;99809.44;;;17.48;37.27
36664;BME280;53333;51.976;20.144;2023-04-23T06:47:02;99804.59;;;17.63;37.12
36664;BME280;53333;51.976;20.144;2023-04-23T06:49:35;99806.59;;;17.82;36.65
36664;BME280;53333;51.976;20.144;2023-04-23T06:52:08;99801.63;;;17.98;37.21
36664;BME280;53333;51.976;20.144;2023-04-23T06:54:41;99802.50;;;18.20;37.04
36664;BME280;53333;51.976;20.144;2023-04-23T06:57:14;99810.72;;;18.39;36.68
36664;BME280;53333;51.976;20.144;2023-04-23T06:59:47;99799.28;;;18.57;36.54
36664;BME280;53333;51.976;20.144;2023-04-23T07:02:22;99805.06;;;18.73;35.14
36664;BME280;53333;51.976;20.144;2023-04-23T07:04:55;99799.31;;;18.87;34.44
36664;BME280;53333;51.976;20.144;2023-04-23T07:07:28;99799.94;;;19.01;35.16
36664;BME280;53333;51.976;20.144;2023-04-23T07:10:01;99792.25;;;19.16;34.90
36664;BME280;53333;51.976;20.144;2023-04-23T07:12:35;99788.47;;;19.38;35.58
36664;BME280;53333;51.976;20.144;2023-04-23T07:15:09;99789.50;;;19.66;35.20
36664;BME280;53333;51.976;20.144;2023-04-23T07:17:43;99788.22;;;19.90;35.14
36664;BME280;53333;51.976;20.144;2023-04-23T07:20:17;99787.78;;;20.14;34.29
36664;BME280;53333;51.976;20.144;2023-04-23T07:22:50;99791.41;;;20.32;34.16
36664;BME280;53333;51.976;20.144;2023-04-23T07:25:23;99787.94;;;20.50;33.96
36664;BME280;53333;51.976;20.144;2023-04-23T07:27:57;99780.09;;;20.66;33.21
36664;BME280;53333;51.976;20.144;2023-04-23T07:30:30;99786.72;;;20.82;32.93
36664;BME280;53333;51.976;20.144;2023-04-23T07:33:04;99782.66;;;20.96;32.30
36664;BME280;53333;51.976;20.144;2023-04-23T07:35:37;99789.06;;;21.04;31.61
36664;BME280;53333;51.976;20.144;2023-04-23T07:38:10;99780.84;;;21.14;31.37
36664;BME280;53333;51.976;20.144;2023-04-23T07:40:43;99786.22;;;21.24;31.34
36664;BME280;53333;51.976;20.144;2023-04-23T07:43:16;99774.28;;;21.35;30.69
36664;BME280;53333;51.976;20.144;2023-04-23T07:45:49;99774.63;;;21.50;30.66
36664;BME280;53333;51.976;20.144;2023-04-23T07:48:23;99774.47;;;21.69;30.87
36664;BME280;53333;51.976;20.144;2023-04-23T07:50:56;99770.25;;;21.93;30.27
36664;BME280;53333;51.976;20.144;2023-04-23T07:53:29;99772.47;;;22.16;30.30
36664;BME280;53333;51.976;20.144;2023-04-23T07:56:02;99769.56;;;22.35;29.46
36664;BME280;53333;51.976;20.144;2023-04-23T07:58:35;99777.19;;;22.58;29.45
36664;BME280;53333;51.976;20.144;2023-04-23T08:01:08;99781.34;;;22.78;28.78
36664;BME280;53333;51.976;20.144;2023-04-23T08:03:43;99780.25;;;22.97;28.17
36664;BME280;53333;51.976;20.144;2023-04-23T08:06:16;99777.31;;;23.17;27.61
36664;BME280;53333;51.976;20.144;2023-04-23T08:08:50;99762.50;;;23.28;27.68
36664;BME280;53333;51.976;20.144;2023-04-23T08:11:23;99771.00;;;23.25;27.98
36664;BME280;53333;51.976;20.144;2023-04-23T08:13:55;99777.31;;;23.25;27.52
36664;BME280;53333;51.976;20.144;2023-04-23T08:16:28;99772.94;;;23.49;27.47
36664;BME280;53333;51.976;20.144;2023-04-23T08:19:03;99760.56;;;23.87;26.53
36664;BME280;53333;51.976;20.144;2023-04-23T08:21:38;99766.16;;;24.35;26.06
36664;BME280;53333;51.976;20.144;2023-04-23T08:24:12;99754.41;;;24.91;25.17
36664;BME280;53333;51.976;20.144;2023-04-23T08:26:45;99764.78;;;25.58;24.84
36664;BME280;53333;51.976;20.144;2023-04-23T08:29:19;99754.28;;;26.46;23.42
36664;BME280;53333;51.976;20.144;2023-04-23T08:31:51;99755.94;;;27.58;22.06
36664;BME280;53333;51.976;20.144;2023-04-23T08:34:26;99758.41;;;28.81;20.98
36664;BME280;53333;51.976;20.144;2023-04-23T08:36:59;99757.50;;;30.04;19.83
36664;BME280;53333;51.976;20.144;2023-04-23T08:39:32;99758.72;;;31.27;20.14
36664;BME280;53333;51.976;20.144;2023-04-23T08:42:09;99758.47;;;31.99;18.25
36664;BME280;53333;51.976;20.144;2023-04-23T08:44:45;99750.94;;;32.38;17.51
36664;BME280;53333;51.976;20.144;2023-04-23T08:47:21;99756.25;;;33.13;16.93
36664;BME280;53333;51.976;20.144;2023-04-23T08:50:00;99755.88;;;34.01;15.64
36664;BME280;53333;51.976;20.144;2023-04-23T08:52:33;99748.34;;;34.44;15.19
36664;BME280;53333;51.976;20.144;2023-04-23T08:55:14;99749.50;;;34.12;15.15
36664;BME280;53333;51.976;20.144;2023-04-23T08:57:49;99783.00;;;33.69;15.08
36664;BME280;53333;51.976;20.144;2023-04-23T09:00:23;99763.97;;;33.11;15.34
36664;BME280;53333;51.976;20.144;2023-04-23T09:02:57;99742.09;;;32.73;15.61
36664;BME280;53333;51.976;20.144;2023-04-23T09:05:32;99736.03;;;32.39;15.72
36664;BME280;53333;51.976;20.144;2023-04-23T09:08:05;99748.22;;;32.06;15.92
36664;BME280;53333;51.976;20.144;2023-04-23T09:10:42;99745.22;;;32.14;16.41
36664;BME280;53333;51.976;20.144;2023-04-23T09:13:16;99739.47;;;32.16;16.13
36664;BME280;53333;51.976;20.144;2023-04-23T09:15:50;99744.31;;;32.20;16.16
36664;BME280;53333;51.976;20.144;2023-04-23T09:18:23;99752.03;;;32.12;16.02
36664;BME280;53333;51.976;20.144;2023-04-23T09:21:00;99732.25;;;32.15;16.10
36664;BME280;53333;51.976;20.144;2023-04-23T09:23:37;99722.06;;;32.34;16.04
36664;BME280;53333;51.976;20.144;2023-04-23T09:26:18;99725.53;;;32.73;15.93
36664;BME280;53333;51.976;20.144;2023-04-23T09:28:52;99725.66;;;32.97;15.89
36664;BME280;53333;51.976;20.144;2023-04-23T09:31:25;99727.00;;;33.24;15.48
36664;BME280;53333;51.976;20.144;2023-04-23T09:33:59;99726.97;;;34.20;14.98
36664;BME280;53333;51.976;20.144;2023-04-23T09:36:33;99715.50;;;35.28;13.97
36664;BME280;53333;51.976;20.144;2023-04-23T09:39:11;99731.66;;;36.45;13.28
36664;BME280;53333;51.976;20.144;2023-04-23T09:41:45;99714.16;;;37.33;12.80
36664;BME280;53333;51.976;20.144;2023-04-23T09:44:18;99718.84;;;38.20;12.32
36664;BME280;53333;51.976;20.144;2023-04-23T09:46:53;99702.59;;;39.07;11.77
36664;BME280;53333;51.976;20.144;2023-04-23T09:49:26;99712.50;;;39.61;11.18
36664;BME280;53333;51.976;20.144;2023-04-23T09:52:04;99720.03;;;40.22;10.38
36664;BME280;53333;51.976;20.144;2023-04-23T09:54:38;99705.78;;;39.62;10.34
36664;BME280;53333;51.976;20.144;2023-04-23T09:57:11;99698.72;;;38.55;11.17
36664;BME280;53333;51.976;20.144;2023-04-23T09:59:44;99696.22;;;38.59;10.85
36664;BME280;53333;51.976;20.144;2023-04-23T10:02:26;99694.81;;;39.19;10.60
36664;BME280;53333;51.976;20.144;2023-04-23T10:04:59;99697.13;;;40.05;10.19
36664;BME280;53333;51.976;20.144;2023-04-23T10:07:54;99689.00;;;41.05;9.16
36664;BME280;53333;51.976;20.144;2023-04-23T10:10:27;99683.22;;;41.75;9.28
36664;BME280;53333;51.976;20.144;2023-04-23T10:13:00;99683.47;;;42.37;8.50
36664;BME280;53333;51.976;20.144;2023-04-23T10:15:34;99676.00;;;43.19;8.58
36664;BME280;53333;51.976;20.144;2023-04-23T10:18:07;99683.91;;;43.88;7.85
36664;BME280;53333;51.976;20.144;2023-04-23T10:20:41;99684.69;;;44.07;7.43
36664;BME280;53333;51.976;20.144;2023-04-23T10:23:16;99670.41;;;44.04;7.34
36664;BME280;53333;51.976;20.144;2023-04-23T10:25:52;99674.78;;;44.10;7.20
36664;BME280;53333;51.976;20.144;2023-04-23T10:28:29;99662.59;;;44.15;7.14
36664;BME280;53333;51.976;20.144;2023-04-23T10:31:05;99662.75;;;44.37;7.08
36664;BME280;53333;51.976;20.144;2023-04-23T10:33:38;99666.09;;;44.39;7.02
36664;BME280;53333;51.976;20.144;2023-04-23T10:36:29;99666.09;;;44.39;7.23
36664;BME280;53333;51.976;20.144;2023-04-23T10:39:05;99654.50;;;44.55;6.95
36664;BME280;53333;51.976;20.144;2023-04-23T10:41:41;99650.78;;;44.32;6.98
36664;BME280;53333;51.976;20.144;2023-04-23T10:44:15;99655.78;;;44.35;7.04
36664;BME280;53333;51.976;20.144;2023-04-23T10:47:11;99656.53;;;43.94;6.73
36664;BME280;53333;51.976;20.144;2023-04-23T10:49:44;99653.44;;;43.43;6.64
36664;BME280;53333;51.976;20.144;2023-04-23T10:52:18;99636.75;;;43.14;6.78
36664;BME280;53333;51.976;20.144;2023-04-23T10:54:57;99635.75;;;42.86;6.92
36664;BME280;53333;51.976;20.144;2023-04-23T10:57:54;99631.03;;;42.81;7.58
36664;BME280;53333;51.976;20.144;2023-04-23T11:00:43;99625.06;;;42.69;7.16
36664;BME280;53333;51.976;20.144;2023-04-23T11:03:28;99626.41;;;42.47;7.10
36664;BME280;53333;51.976;20.144;2023-04-23T11:06:03;99624.06;;;42.06;7.23
36664;BME280;53333;51.976;20.144;2023-04-23T11:08:36;99625.19;;;41.81;7.39
36664;BME280;53333;51.976;20.144;2023-04-23T11:11:10;99617.66;;;41.76;7.84
36664;BME280;53333;51.976;20.144;2023-04-23T11:13:50;99619.03;;;41.79;8.10
36664;BME280;53333;51.976;20.144;2023-04-23T11:16:23;99616.81;;;41.75;7.87
36664;BME280;53333;51.976;20.144;2023-04-23T11:18:58;99619.78;;;41.55;7.51
36664;BME280;53333;51.976;20.144;2023-04-23T11:21:55;99596.94;;;40.48;8.25
36664;BME280;53333;51.976;20.144;2023-04-23T11:24:33;99610.56;;;39.53;8.57
36664;BME280;53333;51.976;20.144;2023-04-23T11:27:12;99602.13;;;38.33;9.33
36664;BME280;53333;51.976;20.144;2023-04-23T11:29:45;99595.50;;;37.22;9.88
36664;BME280;53333;51.976;20.144;2023-04-23T11:32:20;99586.34;;;36.50;10.51
36664;BME280;53333;51.976;20.144;2023-04-23T11:34:54;99601.25;;;35.82;10.93
36664;BME280;53333;51.976;20.144;2023-04-23T11:37:28;99595.97;;;35.01;11.72
36664;BME280;53333;51.976;20.144;2023-04-23T11:40:05;99588.94;;;34.41;11.64
36664;BME280;53333;51.976;20.144;2023-04-23T11:42:44;99582.41;;;33.71;12.23
36664;BME280;53333;51.976;20.144;2023-04-23T11:45:22;99582.25;;;33.12;12.80
36664;BME280;53333;51.976;20.144;2023-04-23T11:47:57;99576.84;;;32.63;13.33
36664;BME280;53333;51.976;20.144;2023-04-23T11:50:32;99576.47;;;32.22;12.99
36664;BME280;53333;51.976;20.144;2023-04-23T11:53:07;99572.88;;;31.78;13.47
36664;BME280;53333;51.976;20.144;2023-04-23T11:55:40;99599.22;;;31.24;13.83
36664;BME280;53333;51.976;20.144;2023-04-23T11:58:17;99595.34;;;30.61;14.17
36664;BME280;53333;51.976;20.144;2023-04-23T12:00:56;99585.16;;;30.10;14.61
36664;BME280;53333;51.976;20.144;2023-04-23T12:03:29;99573.78;;;29.73;15.05
36664;BME280;53333;51.976;20.144;2023-04-23T12:06:02;99560.03;;;29.59;15.55
36664;BME280;53333;51.976;20.144;2023-04-23T12:08:35;99568.28;;;29.46;15.43
36664;BME280;53333;51.976;20.144;2023-04-23T12:11:11;99562.78;;;29.19;15.82
36664;BME280;53333;51.976;20.144;2023-04-23T12:13:45;99560.44;;;28.96;15.77
36664;BME280;53333;51.976;20.144;2023-04-23T12:16:32;99559.13;;;28.78;16.05
36664;BME280;53333;51.976;20.144;2023-04-23T12:19:09;99552.03;;;28.56;16.14
36664;BME280;53333;51.976;20.144;2023-04-23T12:21:49;99554.75;;;28.36;16.53
36664;BME280;53333;51.976;20.144;2023-04-23T12:24:27;99547.22;;;28.09;16.40
36664;BME280;53333;51.976;20.144;2023-04-23T12:27:00;99547.75;;;27.91;17.00
36664;BME280;53333;51.976;20.144;2023-04-23T12:29:35;99548.31;;;27.80;17.08
36664;BME280;53333;51.976;20.144;2023-04-23T12:32:10;99556.09;;;27.77;17.46
36664;BME280;53333;51.976;20.144;2023-04-23T12:34:50;99549.72;;;27.69;17.87
36664;BME280;53333;51.976;20.144;2023-04-23T12:37:25;99536.16;;;27.61;17.78
36664;BME280;53333;51.976;20.144;2023-04-23T12:39:58;99540.97;;;27.52;18.35
36664;BME280;53333;51.976;20.144;2023-04-23T12:42:32;99553.13;;;27.43;18.02
36664;BME280;53333;51.976;20.144;2023-04-23T12:45:09;99531.94;;;27.30;17.95
36664;BME280;53333;51.976;20.144;2023-04-23T12:47:42;99539.41;;;27.22;18.33
36664;BME280;53333;51.976;20.144;2023-04-23T12:50:15;99525.72;;;27.22;18.16
36664;BME280;53333;51.976;20.144;2023-04-23T12:52:48;99527.81;;;27.19;18.39
36664;BME280;53333;51.976;20.144;2023-04-23T12:55:21;99525.88;;;27.13;18.49
36664;BME280;53333;51.976;20.144;2023-04-23T12:57:54;99525.56;;;27.02;18.60
36664;BME280;53333;51.976;20.144;2023-04-23T13:00:28;99516.22;;;26.96;18.50
36664;BME280;53333;51.976;20.144;2023-04-23T13:03:01;99528.25;;;26.73;19.14
36664;BME280;53333;51.976;20.144;2023-04-23T13:05:35;99524.47;;;26.59;19.00
36664;BME280;53333;51.976;20.144;2023-04-23T13:08:07;99522.81;;;26.43;19.40
36664;BME280;53333;51.976;20.144;2023-04-23T13:10:40;99513.13;;;26.41;18.78
36664;BME280;53333;51.976;20.144;2023-04-23T13:13:13;99504.94;;;26.26;19.89
36664;BME280;53333;51.976;20.144;2023-04-23T13:15:47;99515.25;;;26.24;19.22
36664;BME280;53333;51.976;20.144;2023-04-23T13:18:20;99516.28;;;26.23;19.34
36664;BME280;53333;51.976;20.144;2023-04-23T13:20:53;99508.75;;;26.25;19.69
36664;BME280;53333;51.976;20.144;2023-04-23T13:23:27;99510.03;;;26.29;19.60
36664;BME280;53333;51.976;20.144;2023-04-23T13:26:02;99490.75;;;26.37;19.79
36664;BME280;53333;51.976;20.144;2023-04-23T13:28:37;99485.38;;;26.44;19.70